Main page
METAR-TAF:

METAR-TAF

Airports :

Faro, Portugal

Faro Airport

latitude: 37-01N, longitude: 007-58W, elevation: 7 m

Current weather observation

The report was made 28 minutes ago, at 23:00 UTC
Wind 1 kt from variable directions
Temperature 19°C
Humidity 78%
Pressure 1014 hPa
Visibility 10 km or more
no clouds below 1500 m and no cumulonimbus

METAR: LPFR 222300Z VRB01KT CAVOK 19/15 Q1014

Time: 00:28 (23:28 UTC)

Forecast

The report was made 6 hours and 28 minutes ago, at 17:00 UTC
Forecast valid from 22 at 18 UTC to 23 at 18 UTC
Wind 10 kt from the West
Visibility 10 km or more
no clouds below 1500 m and no cumulonimbus
Becoming
from 22 at 18 UTC to 22 at 20 UTC
Wind 3 kt from variable directions
Becoming
from 23 at 08 UTC to 23 at 10 UTC
Wind 7 kt from the Southeast

TAF: LPFR 221700Z 2218/2318 26010KT CAVOK BECMG 2218/2220 VRB03KT BECMG 2308/2310 14007KT

Weather observations and forecasts of more than 4000 airports (METAR and TAF reports).

The available stations are represented by yellow and red dots on the map.

Hover mouse over dot to see the name of the station.

Then click to see weather observations and forecasts.

To change the map : click on the green buttons with a black cross to zoom in, on the green button with a dash to zoom out, or on the green arrows for adjacent maps.


METAR-TAF: